sensor_id;sensor_type;location;lat;lon;timestamp;temperature;humidity
12426;DHT22;6277;49.824;9.562;2023-08-06T00:01:39;19.20;65.10
12426;DHT22;6277;49.824;9.562;2023-08-06T00:04:04;19.30;65.30
12426;DHT22;6277;49.824;9.562;2023-08-06T00:06:30;19.20;65.20
12426;DHT22;6277;49.824;9.562;2023-08-06T00:08:55;19.20;65.30
12426;DHT22;6277;49.824;9.562;2023-08-06T00:11:21;19.20;65.40
12426;DHT22;6277;49.824;9.562;2023-08-06T00:13:46;19.20;65.50
12426;DHT22;6277;49.824;9.562;2023-08-06T00:16:12;19.20;65.50
12426;DHT22;6277;49.824;9.562;2023-08-06T00:18:38;19.20;65.60
12426;DHT22;6277;49.824;9.562;2023-08-06T00:21:04;19.20;65.60
12426;DHT22;6277;49.824;9.562;2023-08-06T00:23:30;19.20;65.70
12426;DHT22;6277;49.824;9.562;2023-08-06T00:25:55;19.20;65.80
12426;DHT22;6277;49.824;9.562;2023-08-06T00:28:21;19.20;65.80
12426;DHT22;6277;49.824;9.562;2023-08-06T00:30:51;19.20;65.70
12426;DHT22;6277;49.824;9.562;2023-08-06T00:33:17;19.20;65.80
12426;DHT22;6277;49.824;9.562;2023-08-06T00:35:42;19.20;65.90
12426;DHT22;6277;49.824;9.562;2023-08-06T00:38:08;19.20;66.00
12426;DHT22;6277;49.824;9.562;2023-08-06T00:40:33;19.20;66.10
12426;DHT22;6277;49.824;9.562;2023-08-06T00:42:59;19.20;66.10
12426;DHT22;6277;49.824;9.562;2023-08-06T00:45:25;19.20;66.20
12426;DHT22;6277;49.824;9.562;2023-08-06T00:47:51;19.20;66.40
12426;DHT22;6277;49.824;9.562;2023-08-06T00:50:17;19.20;66.50
12426;DHT22;6277;49.824;9.562;2023-08-06T00:52:43;19.20;66.50
12426;DHT22;6277;49.824;9.562;2023-08-06T00:55:08;19.20;66.70
12426;DHT22;6277;49.824;9.562;2023-08-06T00:57:35;19.20;66.80
12426;DHT22;6277;49.824;9.562;2023-08-06T01:00:01;19.20;66.90
12426;DHT22;6277;49.824;9.562;2023-08-06T01:02:26;19.20;67.00
12426;DHT22;6277;49.824;9.562;2023-08-06T01:04:52;19.20;67.10
12426;DHT22;6277;49.824;9.562;2023-08-06T01:07:36;19.20;67.10
12426;DHT22;6277;49.824;9.562;2023-08-06T01:15:19;19.20;66.90
12426;DHT22;6277;49.824;9.562;2023-08-06T01:17:46;19.20;67.50
12426;DHT22;6277;49.824;9.562;2023-08-06T01:20:12;19.20;66.90
12426;DHT22;6277;49.824;9.562;2023-08-06T01:22:38;19.10;66.90
12426;DHT22;6277;49.824;9.562;2023-08-06T01:25:04;19.10;66.80
12426;DHT22;6277;49.824;9.562;2023-08-06T01:27:47;19.10;66.80
12426;DHT22;6277;49.824;9.562;2023-08-06T01:30:17;19.00;67.10
12426;DHT22;6277;49.824;9.562;2023-08-06T01:32:49;18.90;66.70
12426;DHT22;6277;49.824;9.562;2023-08-06T01:35:16;18.80;66.90
12426;DHT22;6277;49.824;9.562;2023-08-06T01:37:43;18.80;66.70
12426;DHT22;6277;49.824;9.562;2023-08-06T01:40:12;18.70;66.70
12426;DHT22;6277;49.824;9.562;2023-08-06T01:42:38;18.60;66.90
12426;DHT22;6277;49.824;9.562;2023-08-06T01:45:05;18.50;66.90
12426;DHT22;6277;49.824;9.562;2023-08-06T01:47:31;18.50;67.10
12426;DHT22;6277;49.824;9.562;2023-08-06T01:49:56;18.40;67.20
12426;DHT22;6277;49.824;9.562;2023-08-06T01:52:22;18.30;67.20
12426;DHT22;6277;49.824;9.562;2023-08-06T01:54:47;18.20;67.40
12426;DHT22;6277;49.824;9.562;2023-08-06T01:57:13;18.20;67.70
12426;DHT22;6277;49.824;9.562;2023-08-06T01:59:39;18.10;67.80
12426;DHT22;6277;49.824;9.562;2023-08-06T02:02:04;18.10;68.10
12426;DHT22;6277;49.824;9.562;2023-08-06T02:04:30;18.00;68.30
12426;DHT22;6277;49.824;9.562;2023-08-06T02:06:55;18.00;68.60
12426;DHT22;6277;49.824;9.562;2023-08-06T02:09:21;18.00;68.60
12426;DHT22;6277;49.824;9.562;2023-08-06T02:11:46;18.00;68.70
12426;DHT22;6277;49.824;9.562;2023-08-06T02:14:12;18.00;68.80
12426;DHT22;6277;49.824;9.562;2023-08-06T02:16:37;18.00;69.00
12426;DHT22;6277;49.824;9.562;2023-08-06T02:19:03;18.00;69.10
12426;DHT22;6277;49.824;9.562;2023-08-06T02:21:28;18.00;69.20
12426;DHT22;6277;49.824;9.562;2023-08-06T02:23:55;18.00;69.30
12426;DHT22;6277;49.824;9.562;2023-08-06T02:26:20;17.90;69.40
12426;DHT22;6277;49.824;9.562;2023-08-06T02:28:46;18.00;69.60
12426;DHT22;6277;49.824;9.562;2023-08-06T02:31:11;18.00;69.70
12426;DHT22;6277;49.824;9.562;2023-08-06T02:33:37;18.00;69.80
12426;DHT22;6277;49.824;9.562;2023-08-06T02:36:03;18.00;69.90
12426;DHT22;6277;49.824;9.562;2023-08-06T02:38:29;18.10;70.10
12426;DHT22;6277;49.824;9.562;2023-08-06T02:40:55;18.10;70.20
12426;DHT22;6277;49.824;9.562;2023-08-06T02:43:21;18.10;70.20
12426;DHT22;6277;49.824;9.562;2023-08-06T02:45:46;18.20;70.30
12426;DHT22;6277;49.824;9.562;2023-08-06T02:48:12;18.20;70.30
12426;DHT22;6277;49.824;9.562;2023-08-06T02:50:39;18.20;70.30
12426;DHT22;6277;49.824;9.562;2023-08-06T02:53:05;18.30;70.50
12426;DHT22;6277;49.824;9.562;2023-08-06T02:55:31;18.30;70.30
12426;DHT22;6277;49.824;9.562;2023-08-06T02:57:56;18.30;70.20
12426;DHT22;6277;49.824;9.562;2023-08-06T03:00:22;18.30;70.30
12426;DHT22;6277;49.824;9.562;2023-08-06T03:02:47;18.30;70.30
12426;DHT22;6277;49.824;9.562;2023-08-06T03:05:13;18.30;70.40
12426;DHT22;6277;49.824;9.562;2023-08-06T03:07:38;18.40;70.50
12426;DHT22;6277;49.824;9.562;2023-08-06T03:10:04;18.40;70.60
12426;DHT22;6277;49.824;9.562;2023-08-06T03:12:30;18.40;70.70
12426;DHT22;6277;49.824;9.562;2023-08-06T03:14:55;18.40;70.70
12426;DHT22;6277;49.824;9.562;2023-08-06T03:17:21;18.40;70.70
12426;DHT22;6277;49.824;9.562;2023-08-06T03:19:46;18.40;70.70
12426;DHT22;6277;49.824;9.562;2023-08-06T03:22:12;18.50;70.70
12426;DHT22;6277;49.824;9.562;2023-08-06T03:24:37;18.50;70.70
12426;DHT22;6277;49.824;9.562;2023-08-06T03:27:03;18.50;70.70
12426;DHT22;6277;49.824;9.562;2023-08-06T03:29:29;18.50;70.80
12426;DHT22;6277;49.824;9.562;2023-08-06T03:31:54;18.50;70.80
12426;DHT22;6277;49.824;9.562;2023-08-06T03:34:20;18.50;70.90
12426;DHT22;6277;49.824;9.562;2023-08-06T03:36:45;18.50;71.00
12426;DHT22;6277;49.824;9.562;2023-08-06T03:39:11;18.50;71.00
12426;DHT22;6277;49.824;9.562;2023-08-06T03:41:36;18.50;71.00
12426;DHT22;6277;49.824;9.562;2023-08-06T03:44:02;18.60;71.10
12426;DHT22;6277;49.824;9.562;2023-08-06T03:46:29;18.60;71.20
12426;DHT22;6277;49.824;9.562;2023-08-06T03:48:55;18.60;71.20
12426;DHT22;6277;49.824;9.562;2023-08-06T03:51:22;18.60;71.10
12426;DHT22;6277;49.824;9.562;2023-08-06T03:53:47;18.60;71.00
12426;DHT22;6277;49.824;9.562;2023-08-06T03:56:13;18.60;71.10
12426;DHT22;6277;49.824;9.562;2023-08-06T03:58:38;18.60;71.00
12426;DHT22;6277;49.824;9.562;2023-08-06T04:01:04;18.60;71.00
12426;DHT22;6277;49.824;9.562;2023-08-06T04:03:29;18.60;71.00
12426;DHT22;6277;49.824;9.562;2023-08-06T04:05:55;18.60;71.10
12426;DHT22;6277;49.824;9.562;2023-08-06T04:08:21;18.60;71.10
12426;DHT22;6277;49.824;9.562;2023-08-06T04:10:50;18.60;71.00
12426;DHT22;6277;49.824;9.562;2023-08-06T04:13:16;18.60;71.30
12426;DHT22;6277;49.824;9.562;2023-08-06T04:15:42;18.50;71.00
12426;DHT22;6277;49.824;9.562;2023-08-06T04:18:07;18.50;71.00
12426;DHT22;6277;49.824;9.562;2023-08-06T04:20:33;18.50;71.20
12426;DHT22;6277;49.824;9.562;2023-08-06T04:22:58;18.50;71.20
12426;DHT22;6277;49.824;9.562;2023-08-06T04:25:24;18.50;71.30
12426;DHT22;6277;49.824;9.562;2023-08-06T04:27:50;18.50;71.40
12426;DHT22;6277;49.824;9.562;2023-08-06T04:30:16;18.50;71.50
12426;DHT22;6277;49.824;9.562;2023-08-06T04:32:41;18.50;71.60
12426;DHT22;6277;49.824;9.562;2023-08-06T04:35:07;18.50;71.70
12426;DHT22;6277;49.824;9.562;2023-08-06T04:37:33;18.50;71.80
12426;DHT22;6277;49.824;9.562;2023-08-06T04:39:58;18.50;71.80
12426;DHT22;6277;49.824;9.562;2023-08-06T04:42:24;18.60;71.90
12426;DHT22;6277;49.824;9.562;2023-08-06T04:44:50;18.60;72.00
12426;DHT22;6277;49.824;9.562;2023-08-06T04:47:15;18.60;72.10
12426;DHT22;6277;49.824;9.562;2023-08-06T04:49:41;18.60;72.10
12426;DHT22;6277;49.824;9.562;2023-08-06T04:52:07;18.60;72.00
12426;DHT22;6277;49.824;9.562;2023-08-06T04:54:32;18.70;72.00
12426;DHT22;6277;49.824;9.562;2023-08-06T04:56:58;18.70;72.00
12426;DHT22;6277;49.824;9.562;2023-08-06T04:59:23;18.70;71.90
12426;DHT22;6277;49.824;9.562;2023-08-06T05:01:49;18.70;71.80
12426;DHT22;6277;49.824;9.562;2023-08-06T05:04:14;18.70;71.80
12426;DHT22;6277;49.824;9.562;2023-08-06T05:06:40;18.70;71.80
12426;DHT22;6277;49.824;9.562;2023-08-06T05:09:06;18.70;71.80
12426;DHT22;6277;49.824;9.562;2023-08-06T05:11:32;18.70;72.00
12426;DHT22;6277;49.824;9.562;2023-08-06T05:13:57;18.60;71.90
12426;DHT22;6277;49.824;9.562;2023-08-06T05:16:23;18.70;72.10
12426;DHT22;6277;49.824;9.562;2023-08-06T05:18:49;18.70;72.30
12426;DHT22;6277;49.824;9.562;2023-08-06T05:21:14;18.70;72.50
12426;DHT22;6277;49.824;9.562;2023-08-06T05:23:42;18.80;72.70
12426;DHT22;6277;49.824;9.562;2023-08-06T05:26:07;18.80;73.00
12426;DHT22;6277;49.824;9.562;2023-08-06T05:28:33;18.90;73.00
12426;DHT22;6277;49.824;9.562;2023-08-06T05:31:03;19.00;72.80
12426;DHT22;6277;49.824;9.562;2023-08-06T05:33:28;19.00;72.70
12426;DHT22;6277;49.824;9.562;2023-08-06T05:35:54;19.10;72.40
12426;DHT22;6277;49.824;9.562;2023-08-06T05:38:19;19.10;72.20
12426;DHT22;6277;49.824;9.562;2023-08-06T05:40:45;19.10;72.20
12426;DHT22;6277;49.824;9.562;2023-08-06T05:43:10;19.20;72.40
12426;DHT22;6277;49.824;9.562;2023-08-06T05:45:36;19.20;72.50
12426;DHT22;6277;49.824;9.562;2023-08-06T05:48:02;19.30;72.50
12426;DHT22;6277;49.824;9.562;2023-08-06T05:50:27;19.30;72.40
12426;DHT22;6277;49.824;9.562;2023-08-06T05:52:53;19.40;72.20
12426;DHT22;6277;49.824;9.562;2023-08-06T05:55:20;19.50;72.20
12426;DHT22;6277;49.824;9.562;2023-08-06T05:57:45;19.50;72.00
12426;DHT22;6277;49.824;9.562;2023-08-06T06:00:11;19.50;71.80
12426;DHT22;6277;49.824;9.562;2023-08-06T06:02:37;19.50;71.70
12426;DHT22;6277;49.824;9.562;2023-08-06T06:05:02;19.60;72.50
12426;DHT22;6277;49.824;9.562;2023-08-06T06:07:28;19.60;71.90
12426;DHT22;6277;49.824;9.562;2023-08-06T06:09:53;19.60;72.00
12426;DHT22;6277;49.824;9.562;2023-08-06T06:12:19;19.70;72.00
12426;DHT22;6277;49.824;9.562;2023-08-06T06:14:45;19.70;72.00
12426;DHT22;6277;49.824;9.562;2023-08-06T06:17:10;19.80;72.00
12426;DHT22;6277;49.824;9.562;2023-08-06T06:19:36;19.80;71.90
12426;DHT22;6277;49.824;9.562;2023-08-06T06:22:01;19.90;72.00
12426;DHT22;6277;49.824;9.562;2023-08-06T06:24:27;19.90;71.90
12426;DHT22;6277;49.824;9.562;2023-08-06T06:26:52;20.00;71.90
12426;DHT22;6277;49.824;9.562;2023-08-06T06:29:18;20.00;71.90
12426;DHT22;6277;49.824;9.562;2023-08-06T06:31:44;20.10;71.90
12426;DHT22;6277;49.824;9.562;2023-08-06T06:34:09;20.00;71.70
12426;DHT22;6277;49.824;9.562;2023-08-06T06:36:35;20.10;71.60
12426;DHT22;6277;49.824;9.562;2023-08-06T06:39:00;20.10;71.50
12426;DHT22;6277;49.824;9.562;2023-08-06T06:41:26;20.10;71.30
12426;DHT22;6277;49.824;9.562;2023-08-06T06:43:52;20.10;71.20
12426;DHT22;6277;49.824;9.562;2023-08-06T06:46:17;20.10;71.00
12426;DHT22;6277;49.824;9.562;2023-08-06T06:48:43;20.10;71.00
12426;DHT22;6277;49.824;9.562;2023-08-06T06:51:08;20.10;71.00
12426;DHT22;6277;49.824;9.562;2023-08-06T06:53:34;20.10;71.20
12426;DHT22;6277;49.824;9.562;2023-08-06T06:56:03;20.10;71.20
12426;DHT22;6277;49.824;9.562;2023-08-06T06:58:30;20.20;71.20
12426;DHT22;6277;49.824;9.562;2023-08-06T07:00:56;20.20;71.10
12426;DHT22;6277;49.824;9.562;2023-08-06T07:03:21;20.20;71.00
12426;DHT22;6277;49.824;9.562;2023-08-06T07:05:47;20.30;71.00
12426;DHT22;6277;49.824;9.562;2023-08-06T07:08:12;20.30;71.00
12426;DHT22;6277;49.824;9.562;2023-08-06T07:10:40;20.30;71.20
12426;DHT22;6277;49.824;9.562;2023-08-06T07:13:05;20.40;71.40
12426;DHT22;6277;49.824;9.562;2023-08-06T07:15:31;20.50;71.50
12426;DHT22;6277;49.824;9.562;2023-08-06T07:17:57;20.50;71.40
12426;DHT22;6277;49.824;9.562;2023-08-06T07:20:23;20.70;71.20
12426;DHT22;6277;49.824;9.562;2023-08-06T07:22:48;20.70;71.00
12426;DHT22;6277;49.824;9.562;2023-08-06T07:25:15;20.80;70.70
12426;DHT22;6277;49.824;9.562;2023-08-06T07:27:41;20.90;70.40
12426;DHT22;6277;49.824;9.562;2023-08-06T07:30:07;20.90;70.10
12426;DHT22;6277;49.824;9.562;2023-08-06T07:32:32;20.90;69.80
12426;DHT22;6277;49.824;9.562;2023-08-06T07:34:58;20.90;69.90
12426;DHT22;6277;49.824;9.562;2023-08-06T07:37:26;20.90;69.70
12426;DHT22;6277;49.824;9.562;2023-08-06T07:39:55;20.90;69.60
12426;DHT22;6277;49.824;9.562;2023-08-06T07:42:21;20.80;69.50
12426;DHT22;6277;49.824;9.562;2023-08-06T07:44:54;20.80;69.30
12426;DHT22;6277;49.824;9.562;2023-08-06T07:47:20;20.70;68.90
12426;DHT22;6277;49.824;9.562;2023-08-06T07:49:46;20.70;69.10
12426;DHT22;6277;49.824;9.562;2023-08-06T07:52:12;20.70;69.30
12426;DHT22;6277;49.824;9.562;2023-08-06T07:54:37;20.60;69.40
12426;DHT22;6277;49.824;9.562;2023-08-06T07:57:03;20.50;69.50
12426;DHT22;6277;49.824;9.562;2023-08-06T07:59:29;20.40;69.40
12426;DHT22;6277;49.824;9.562;2023-08-06T08:01:54;20.40;69.60
12426;DHT22;6277;49.824;9.562;2023-08-06T08:04:20;20.30;69.70
12426;DHT22;6277;49.824;9.562;2023-08-06T08:06:46;20.40;69.90
12426;DHT22;6277;49.824;9.562;2023-08-06T08:09:12;20.30;69.90
12426;DHT22;6277;49.824;9.562;2023-08-06T08:11:39;20.30;69.50
12426;DHT22;6277;49.824;9.562;2023-08-06T08:14:05;20.30;69.70
12426;DHT22;6277;49.824;9.562;2023-08-06T08:16:30;20.30;69.90
12426;DHT22;6277;49.824;9.562;2023-08-06T08:18:56;20.30;70.20
12426;DHT22;6277;49.824;9.562;2023-08-06T08:21:21;20.40;70.30
12426;DHT22;6277;49.824;9.562;2023-08-06T08:23:49;20.40;70.30
12426;DHT22;6277;49.824;9.562;2023-08-06T08:26:15;20.50;70.60
12426;DHT22;6277;49.824;9.562;2023-08-06T08:28:41;20.60;70.50
12426;DHT22;6277;49.824;9.562;2023-08-06T08:31:10;20.70;70.40
12426;DHT22;6277;49.824;9.562;2023-08-06T08:33:37;20.80;70.10
12426;DHT22;6277;49.824;9.562;2023-08-06T08:36:03;20.90;70.10
12426;DHT22;6277;49.824;9.562;2023-08-06T08:38:28;20.90;69.80
12426;DHT22;6277;49.824;9.562;2023-08-06T08:40:54;21.00;69.50
12426;DHT22;6277;49.824;9.562;2023-08-06T08:43:23;21.00;69.70
12426;DHT22;6277;49.824;9.562;2023-08-06T08:45:53;21.10;69.40
12426;DHT22;6277;49.824;9.562;2023-08-06T08:48:24;21.20;69.40
12426;DHT22;6277;49.824;9.562;2023-08-06T08:50:50;21.20;69.40
12426;DHT22;6277;49.824;9.562;2023-08-06T08:53:17;21.30;69.50
12426;DHT22;6277;49.824;9.562;2023-08-06T08:55:46;21.40;69.20
12426;DHT22;6277;49.824;9.562;2023-08-06T08:58:11;21.40;69.10
12426;DHT22;6277;49.824;9.562;2023-08-06T09:00:37;21.50;68.60
12426;DHT22;6277;49.824;9.562;2023-08-06T09:03:06;21.50;68.70
12426;DHT22;6277;49.824;9.562;2023-08-06T09:05:32;21.50;68.30
12426;DHT22;6277;49.824;9.562;2023-08-06T09:08:05;21.50;68.40
12426;DHT22;6277;49.824;9.562;2023-08-06T09:10:30;21.40;68.20
12426;DHT22;6277;49.824;9.562;2023-08-06T09:12:57;21.40;68.20
12426;DHT22;6277;49.824;9.562;2023-08-06T09:15:27;21.40;68.10
12426;DHT22;6277;49.824;9.562;2023-08-06T09:17:53;21.20;67.90
12426;DHT22;6277;49.824;9.562;2023-08-06T09:20:19;21.10;68.00
12426;DHT22;6277;49.824;9.562;2023-08-06T09:22:45;21.00;68.10
12426;DHT22;6277;49.824;9.562;2023-08-06T09:25:21;20.90;68.40
12426;DHT22;6277;49.824;9.562;2023-08-06T09:27:50;20.80;68.80
12426;DHT22;6277;49.824;9.562;2023-08-06T09:30:29;20.80;69.20
12426;DHT22;6277;49.824;9.562;2023-08-06T09:32:55;20.80;69.20
12426;DHT22;6277;49.824;9.562;2023-08-06T09:35:21;20.90;69.90
12426;DHT22;6277;49.824;9.562;2023-08-06T09:37:47;21.00;69.60
12426;DHT22;6277;49.824;9.562;2023-08-06T09:40:29;21.10;69.40
12426;DHT22;6277;49.824;9.562;2023-08-06T09:42:56;21.20;69.30
12426;DHT22;6277;49.824;9.562;2023-08-06T09:45:23;21.30;69.60
12426;DHT22;6277;49.824;9.562;2023-08-06T09:47:49;21.40;69.40
12426;DHT22;6277;49.824;9.562;2023-08-06T09:50:17;21.50;69.30
12426;DHT22;6277;49.824;9.562;2023-08-06T09:52:44;21.70;68.80
12426;DHT22;6277;49.824;9.562;2023-08-06T09:55:12;21.80;68.60
12426;DHT22;6277;49.824;9.562;2023-08-06T09:57:38;21.90;68.70
12426;DHT22;6277;49.824;9.562;2023-08-06T10:00:04;22.10;68.60
12426;DHT22;6277;49.824;9.562;2023-08-06T10:02:32;22.20;68.00
12426;DHT22;6277;49.824;9.562;2023-08-06T10:04:58;22.30;67.70
12426;DHT22;6277;49.824;9.562;2023-08-06T10:07:24;22.40;67.80
12426;DHT22;6277;49.824;9.562;2023-08-06T10:09:50;22.50;67.50
12426;DHT22;6277;49.824;9.562;2023-08-06T10:12:16;22.60;67.40
12426;DHT22;6277;49.824;9.562;2023-08-06T10:14:44;22.70;67.10
12426;DHT22;6277;49.824;9.562;2023-08-06T10:17:11;22.80;67.20
12426;DHT22;6277;49.824;9.562;2023-08-06T10:19:36;23.00;67.40
12426;DHT22;6277;49.824;9.562;2023-08-06T10:22:17;23.20;67.10
12426;DHT22;6277;49.824;9.562;2023-08-06T10:24:56;23.30;65.90
12426;DHT22;6277;49.824;9.562;2023-08-06T10:33:04;23.40;65.00
12426;DHT22;6277;49.824;9.562;2023-08-06T10:40:39;23.10;63.90
12426;DHT22;6277;49.824;9.562;2023-08-06T10:43:05;22.90;64.10
12426;DHT22;6277;49.824;9.562;2023-08-06T10:45:37;22.80;64.10
12426;DHT22;6277;49.824;9.562;2023-08-06T10:48:03;22.70;63.90
12426;DHT22;6277;49.824;9.562;2023-08-06T10:50:30;22.60;64.20
12426;DHT22;6277;49.824;9.562;2023-08-06T10:52:57;22.50;64.20
12426;DHT22;6277;49.824;9.562;2023-08-06T10:55:24;22.50;64.10
12426;DHT22;6277;49.824;9.562;2023-08-06T10:57:50;22.40;64.80
12426;DHT22;6277;49.824;9.562;2023-08-06T11:00:16;22.30;64.70
12426;DHT22;6277;49.824;9.562;2023-08-06T11:02:41;22.10;65.00
12426;DHT22;6277;49.824;9.562;2023-08-06T11:05:08;22.00;65.40
12426;DHT22;6277;49.824;9.562;2023-08-06T11:07:37;22.00;66.20
12426;DHT22;6277;49.824;9.562;2023-08-06T11:12:29;22.00;66.40
12426;DHT22;6277;49.824;9.562;2023-08-06T11:14:55;22.10;66.30
12426;DHT22;6277;49.824;9.562;2023-08-06T11:17:21;22.10;66.20
12426;DHT22;6277;49.824;9.562;2023-08-06T11:19:47;22.20;66.40
12426;DHT22;6277;49.824;9.562;2023-08-06T11:22:14;22.20;66.20
12426;DHT22;6277;49.824;9.562;2023-08-06T11:24:39;22.30;66.00
12426;DHT22;6277;49.824;9.562;2023-08-06T11:27:12;22.40;65.80
12426;DHT22;6277;49.824;9.562;2023-08-06T11:29:38;22.40;64.90
12426;DHT22;6277;49.824;9.562;2023-08-06T11:32:05;22.50;65.10
12426;DHT22;6277;49.824;9.562;2023-08-06T11:34:30;22.50;65.10
12426;DHT22;6277;49.824;9.562;2023-08-06T11:36:57;22.50;64.90
12426;DHT22;6277;49.824;9.562;2023-08-06T11:39:23;22.50;64.90
12426;DHT22;6277;49.824;9.562;2023-08-06T11:41:49;22.40;65.70
12426;DHT22;6277;49.824;9.562;2023-08-06T11:44:14;22.50;65.00
12426;DHT22;6277;49.824;9.562;2023-08-06T11:46:53;22.50;65.10
12426;DHT22;6277;49.824;9.562;2023-08-06T11:52:19;22.60;64.50
12426;DHT22;6277;49.824;9.562;2023-08-06T11:55:03;22.60;65.10
12426;DHT22;6277;49.824;9.562;2023-08-06T11:57:29;22.50;64.80
12426;DHT22;6277;49.824;9.562;2023-08-06T12:00:01;22.40;64.70
12426;DHT22;6277;49.824;9.562;2023-08-06T12:02:26;22.20;64.20
12426;DHT22;6277;49.824;9.562;2023-08-06T12:05:09;22.00;64.10
12426;DHT22;6277;49.824;9.562;2023-08-06T12:07:38;21.90;64.60
12426;DHT22;6277;49.824;9.562;2023-08-06T12:10:05;21.80;65.30
12426;DHT22;6277;49.824;9.562;2023-08-06T12:12:30;21.80;65.90
12426;DHT22;6277;49.824;9.562;2023-08-06T12:14:56;21.80;66.00
12426;DHT22;6277;49.824;9.562;2023-08-06T12:17:23;21.80;66.20
12426;DHT22;6277;49.824;9.562;2023-08-06T12:19:49;21.90;66.30
12426;DHT22;6277;49.824;9.562;2023-08-06T12:22:15;22.00;66.30
12426;DHT22;6277;49.824;9.562;2023-08-06T12:24:42;22.10;66.10
12426;DHT22;6277;49.824;9.562;2023-08-06T12:27:08;22.20;65.50
12426;DHT22;6277;49.824;9.562;2023-08-06T12:29:34;22.20;65.00
12426;DHT22;6277;49.824;9.562;2023-08-06T12:32:00;22.10;64.80
12426;DHT22;6277;49.824;9.562;2023-08-06T12:34:25;21.90;64.40
12426;DHT22;6277;49.824;9.562;2023-08-06T12:36:51;21.60;64.50
12426;DHT22;6277;49.824;9.562;2023-08-06T12:39:16;21.30;64.90
12426;DHT22;6277;49.824;9.562;2023-08-06T12:41:42;20.90;65.30
12426;DHT22;6277;49.824;9.562;2023-08-06T12:44:09;20.70;65.80
12426;DHT22;6277;49.824;9.562;2023-08-06T12:46:34;20.40;65.90
12426;DHT22;6277;49.824;9.562;2023-08-06T12:49:00;20.10;66.30
12426;DHT22;6277;49.824;9.562;2023-08-06T12:51:25;19.80;66.70
12426;DHT22;6277;49.824;9.562;2023-08-06T12:53:51;19.60;67.10
12426;DHT22;6277;49.824;9.562;2023-08-06T12:56:16;19.40;67.60
12426;DHT22;6277;49.824;9.562;2023-08-06T12:58:42;19.20;67.80
12426;DHT22;6277;49.824;9.562;2023-08-06T13:01:08;19.10;68.30
12426;DHT22;6277;49.824;9.562;2023-08-06T13:03:33;19.00;68.60
12426;DHT22;6277;49.824;9.562;2023-08-06T13:05:59;18.90;69.30
12426;DHT22;6277;49.824;9.562;2023-08-06T13:08:24;18.90;69.60
12426;DHT22;6277;49.824;9.562;2023-08-06T13:10:50;18.90;69.70
12426;DHT22;6277;49.824;9.562;2023-08-06T13:13:15;18.90;69.60
12426;DHT22;6277;49.824;9.562;2023-08-06T13:15:41;18.80;69.10
12426;DHT22;6277;49.824;9.562;2023-08-06T13:18:07;18.70;69.10
12426;DHT22;6277;49.824;9.562;2023-08-06T13:20:32;18.70;69.30
12426;DHT22;6277;49.824;9.562;2023-08-06T13:22:58;18.60;69.40
12426;DHT22;6277;49.824;9.562;2023-08-06T13:25:26;18.60;69.40
12426;DHT22;6277;49.824;9.562;2023-08-06T13:27:52;18.50;69.40
12426;DHT22;6277;49.824;9.562;2023-08-06T13:30:18;18.50;69.90
12426;DHT22;6277;49.824;9.562;2023-08-06T13:32:44;18.50;70.20
12426;DHT22;6277;49.824;9.562;2023-08-06T13:35:10;18.50;70.60
12426;DHT22;6277;49.824;9.562;2023-08-06T13:37:36;18.50;70.90
12426;DHT22;6277;49.824;9.562;2023-08-06T13:40:01;18.50;71.10
12426;DHT22;6277;49.824;9.562;2023-08-06T13:42:28;18.60;71.00
12426;DHT22;6277;49.824;9.562;2023-08-06T13:44:54;18.60;71.10
12426;DHT22;6277;49.824;9.562;2023-08-06T13:47:27;18.60;70.80
12426;DHT22;6277;49.824;9.562;2023-08-06T13:49:53;18.60;70.70
12426;DHT22;6277;49.824;9.562;2023-08-06T13:52:18;18.50;70.60
12426;DHT22;6277;49.824;9.562;2023-08-06T13:54:44;18.50;70.80
12426;DHT22;6277;49.824;9.562;2023-08-06T13:57:09;18.40;71.30
12426;DHT22;6277;49.824;9.562;2023-08-06T13:59:35;18.40;71.30
12426;DHT22;6277;49.824;9.562;2023-08-06T14:02:00;18.40;71.50
12426;DHT22;6277;49.824;9.562;2023-08-06T14:04:26;18.30;71.40
12426;DHT22;6277;49.824;9.562;2023-08-06T14:06:51;18.20;71.20
12426;DHT22;6277;49.824;9.562;2023-08-06T14:09:17;18.20;71.30
12426;DHT22;6277;49.824;9.562;2023-08-06T14:11:44;18.10;71.50
12426;DHT22;6277;49.824;9.562;2023-08-06T14:14:11;18.10;71.40
12426;DHT22;6277;49.824;9.562;2023-08-06T14:16:36;18.00;71.70
12426;DHT22;6277;49.824;9.562;2023-08-06T14:19:02;18.00;71.80
12426;DHT22;6277;49.824;9.562;2023-08-06T14:21:28;18.00;72.50
12426;DHT22;6277;49.824;9.562;2023-08-06T14:23:53;18.00;72.40
12426;DHT22;6277;49.824;9.562;2023-08-06T14:26:19;18.00;72.70
12426;DHT22;6277;49.824;9.562;2023-08-06T14:28:44;18.00;72.60
12426;DHT22;6277;49.824;9.562;2023-08-06T14:31:11;18.10;72.30
12426;DHT22;6277;49.824;9.562;2023-08-06T14:33:37;18.00;72.30
12426;DHT22;6277;49.824;9.562;2023-08-06T14:36:02;18.00;72.60
12426;DHT22;6277;49.824;9.562;2023-08-06T14:38:28;17.90;72.50
12426;DHT22;6277;49.824;9.562;2023-08-06T14:40:54;17.90;73.40
12426;DHT22;6277;49.824;9.562;2023-08-06T14:43:19;17.80;74.10
12426;DHT22;6277;49.824;9.562;2023-08-06T14:45:45;17.90;74.50
12426;DHT22;6277;49.824;9.562;2023-08-06T14:48:11;18.00;75.20
12426;DHT22;6277;49.824;9.562;2023-08-06T14:50:36;18.10;75.40
12426;DHT22;6277;49.824;9.562;2023-08-06T14:53:03;18.20;75.30
12426;DHT22;6277;49.824;9.562;2023-08-06T14:55:30;18.30;74.80
12426;DHT22;6277;49.824;9.562;2023-08-06T14:57:55;18.20;74.40
12426;DHT22;6277;49.824;9.562;2023-08-06T15:00:21;18.40;74.30
12426;DHT22;6277;49.824;9.562;2023-08-06T15:02:46;18.40;74.50
12426;DHT22;6277;49.824;9.562;2023-08-06T15:05:12;18.50;74.70
12426;DHT22;6277;49.824;9.562;2023-08-06T15:07:38;18.60;74.10
12426;DHT22;6277;49.824;9.562;2023-08-06T15:10:07;18.70;73.80
12426;DHT22;6277;49.824;9.562;2023-08-06T15:12:32;18.70;73.30
12426;DHT22;6277;49.824;9.562;2023-08-06T15:14:58;18.70;73.00
12426;DHT22;6277;49.824;9.562;2023-08-06T15:17:26;18.70;72.80
12426;DHT22;6277;49.824;9.562;2023-08-06T15:19:52;18.70;73.20
12426;DHT22;6277;49.824;9.562;2023-08-06T15:22:17;18.70;72.70
12426;DHT22;6277;49.824;9.562;2023-08-06T15:24:43;18.70;72.70
12426;DHT22;6277;49.824;9.562;2023-08-06T15:27:09;18.70;73.00
12426;DHT22;6277;49.824;9.562;2023-08-06T15:29:35;18.70;73.30
12426;DHT22;6277;49.824;9.562;2023-08-06T15:32:00;18.80;73.50
12426;DHT22;6277;49.824;9.562;2023-08-06T15:34:26;18.80;73.30
12426;DHT22;6277;49.824;9.562;2023-08-06T15:36:51;18.90;73.00
12426;DHT22;6277;49.824;9.562;2023-08-06T15:39:17;18.90;73.00
12426;DHT22;6277;49.824;9.562;2023-08-06T15:41:42;19.00;73.00
12426;DHT22;6277;49.824;9.562;2023-08-06T15:44:08;19.00;72.90
12426;DHT22;6277;49.824;9.562;2023-08-06T15:46:34;19.10;72.80
12426;DHT22;6277;49.824;9.562;2023-08-06T15:49:01;19.10;72.50
12426;DHT22;6277;49.824;9.562;2023-08-06T15:51:26;19.10;72.70
12426;DHT22;6277;49.824;9.562;2023-08-06T15:53:52;19.20;72.80
12426;DHT22;6277;49.824;9.562;2023-08-06T15:56:17;19.20;72.60
12426;DHT22;6277;49.824;9.562;2023-08-06T15:58:43;19.30;72.30
12426;DHT22;6277;49.824;9.562;2023-08-06T16:01:08;19.30;72.00